world map with LEJ marked

LEJ - Airport

This information may not be accurate or current and is not valid for navigation or flight planning. No warranty of fitness for any purpose is made or implied.

flag of Saxonyflag of Germany

Donate via PayPal

Additional information is available on the NEW Great Circle Mapper

Location
City:  Leipzig, Saxony, Germany
Near (Alt.):Schkeuditz
Name:Leipzig/Halle Airport
ICAO / IATA:EDDP / LEJ

Details
Type:Airport (Flugplatz, Airfield)
Use:Public/Civil
Latitude:51°25'57"N (51.432447)
Longitude:12°14'30"E (12.241633)
Datum:WGS 1984
Elevation:465 ft (142 m)
Runways:2
Longest:11811 × 198 ft (3600 × 60.5 m)

Time
Timezone:UTC+1 (DST+4)
Local Time:

Weather
METAR:EDDP  041350Z 20008KT 170V230 CAVOK 05/M03 Q1027 NOSIG
TAF:EDDP  041100Z 0412/0512 19010KT CAVOK

Related Locations
Nearby:
Farthest:CHT: 11769 mi / 18941 km
Waitangi [Tuuta], CIT, NZ

Find:

   beyond  
but within

Other Information
Maps:
Links:
Sources:

  


 


Great Circle Mapper   Great Circle Mapper
Great Circle Mapper FAQ   Great Circle Mapper FAQ
  Karl's Home Page
KLSē   KLSē Home
   GC on Facebook
Airlines of the World   Airlines of the World
Donate via PayPal


Copyright © 2004-2020, Karl L. Swartz. All rights reserved.
All trademarks mentioned herein belong to their respective owners.

Please see credits for attribution and copyright information.

Karl Swartz <karl@kls2.com>
  Powered by FreeBSD
Valid HTML 4.01!
Labeled with ICRA
hCard Microformat
Geo Microformat